sensor_id;sensor_type;location;lat;lon;timestamp;pressure;altitude;pressure_sealevel;temperature;humidity
39051;BME280;24805;55.852;37.644;2023-07-29T00:04:55;98398.72;;;17.84;70.63
39051;BME280;24805;55.852;37.644;2023-07-29T00:09:57;98401.16;;;17.85;70.64
39051;BME280;24805;55.852;37.644;2023-07-29T00:15:00;98404.88;;;17.84;70.55
39051;BME280;24805;55.852;37.644;2023-07-29T00:20:06;98397.41;;;17.86;70.35
39051;BME280;24805;55.852;37.644;2023-07-29T00:25:10;98405.69;;;17.85;70.09
39051;BME280;24805;55.852;37.644;2023-07-29T00:30:12;98393.34;;;17.84;70.31
39051;BME280;24805;55.852;37.644;2023-07-29T00:35:14;98396.75;;;17.74;70.08
39051;BME280;24805;55.852;37.644;2023-07-29T00:40:21;98404.44;;;17.93;70.09
39051;BME280;24805;55.852;37.644;2023-07-29T00:45:24;98409.38;;;17.79;70.02
39051;BME280;24805;55.852;37.644;2023-07-29T00:50:29;98410.91;;;17.70;70.15
39051;BME280;24805;55.852;37.644;2023-07-29T00:55:34;98404.16;;;17.67;70.17
39051;BME280;24805;55.852;37.644;2023-07-29T01:00:36;98396.50;;;17.59;70.14
39051;BME280;24805;55.852;37.644;2023-07-29T01:06:06;98389.84;;;17.83;69.97
39051;BME280;24805;55.852;37.644;2023-07-29T01:11:21;98399.09;;;17.71;70.24
39051;BME280;24805;55.852;37.644;2023-07-29T01:16:42;98367.00;;;17.59;70.34
39051;BME280;24805;55.852;37.644;2023-07-29T01:21:46;98371.88;;;17.40;70.14
39051;BME280;24805;55.852;37.644;2023-07-29T01:26:48;98374.03;;;17.38;70.71
39051;BME280;24805;55.852;37.644;2023-07-29T01:31:54;98381.84;;;17.45;71.05
39051;BME280;24805;55.852;37.644;2023-07-29T01:36:59;98364.66;;;17.41;71.25
39051;BME280;24805;55.852;37.644;2023-07-29T01:42:04;98367.47;;;17.29;71.04
39051;BME280;24805;55.852;37.644;2023-07-29T01:47:07;98352.69;;;17.27;71.50
39051;BME280;24805;55.852;37.644;2023-07-29T01:52:10;98352.38;;;17.23;70.83
39051;BME280;24805;55.852;37.644;2023-07-29T01:57:12;98341.06;;;17.21;71.52
39051;BME280;24805;55.852;37.644;2023-07-29T02:02:14;98349.13;;;17.21;71.63
39051;BME280;24805;55.852;37.644;2023-07-29T02:07:17;98344.88;;;17.25;71.77
39051;BME280;24805;55.852;37.644;2023-07-29T02:12:21;98347.88;;;17.29;71.81
39051;BME280;24805;55.852;37.644;2023-07-29T02:17:23;98361.69;;;17.37;71.62
39051;BME280;24805;55.852;37.644;2023-07-29T02:22:25;98368.66;;;17.38;71.40
39051;BME280;24805;55.852;37.644;2023-07-29T02:27:28;98367.56;;;17.39;71.27
39051;BME280;24805;55.852;37.644;2023-07-29T02:32:30;98382.59;;;17.40;70.91
39051;BME280;24805;55.852;37.644;2023-07-29T02:37:33;98375.56;;;17.34;70.80
39051;BME280;24805;55.852;37.644;2023-07-29T02:42:35;98391.53;;;17.46;70.97
39051;BME280;24805;55.852;37.644;2023-07-29T02:47:37;98385.34;;;17.45;70.43
39051;BME280;24805;55.852;37.644;2023-07-29T02:52:40;98370.06;;;17.46;70.60
39051;BME280;24805;55.852;37.644;2023-07-29T02:57:42;98345.88;;;17.41;70.82
39051;BME280;24805;55.852;37.644;2023-07-29T03:02:44;98346.13;;;17.39;71.03
39051;BME280;24805;55.852;37.644;2023-07-29T03:07:47;98361.69;;;17.37;71.14
39051;BME280;24805;55.852;37.644;2023-07-29T03:12:49;98373.50;;;17.41;70.97
39051;BME280;24805;55.852;37.644;2023-07-29T03:17:52;98387.03;;;17.51;70.83
39051;BME280;24805;55.852;37.644;2023-07-29T03:22:54;98379.34;;;17.60;71.36
39051;BME280;24805;55.852;37.644;2023-07-29T03:27:57;98354.81;;;17.68;70.89
39051;BME280;24805;55.852;37.644;2023-07-29T03:32:59;98349.44;;;17.68;70.47
39051;BME280;24805;55.852;37.644;2023-07-29T03:38:02;98351.06;;;17.69;70.78
39051;BME280;24805;55.852;37.644;2023-07-29T03:43:04;98336.75;;;17.64;70.69
39051;BME280;24805;55.852;37.644;2023-07-29T03:48:07;98319.81;;;17.58;70.55
39051;BME280;24805;55.852;37.644;2023-07-29T03:53:09;98321.13;;;17.55;71.14
39051;BME280;24805;55.852;37.644;2023-07-29T03:58:11;98323.25;;;17.53;71.17
39051;BME280;24805;55.852;37.644;2023-07-29T04:03:14;98306.34;;;17.53;71.13
39051;BME280;24805;55.852;37.644;2023-07-29T04:08:17;98303.44;;;17.60;71.46
39051;BME280;24805;55.852;37.644;2023-07-29T04:13:19;98306.78;;;17.67;71.08
39051;BME280;24805;55.852;37.644;2023-07-29T04:18:21;98302.28;;;17.72;70.77
39051;BME280;24805;55.852;37.644;2023-07-29T04:23:24;98304.50;;;17.80;70.42
39051;BME280;24805;55.852;37.644;2023-07-29T04:28:27;98314.28;;;17.92;70.95
39051;BME280;24805;55.852;37.644;2023-07-29T04:33:30;98325.34;;;18.00;70.40
39051;BME280;24805;55.852;37.644;2023-07-29T04:38:37;98313.56;;;18.01;69.92
39051;BME280;24805;55.852;37.644;2023-07-29T04:43:39;98306.56;;;18.00;69.61
39051;BME280;24805;55.852;37.644;2023-07-29T04:48:42;98297.72;;;18.00;69.56
39051;BME280;24805;55.852;37.644;2023-07-29T04:53:45;98303.06;;;17.95;69.60
39051;BME280;24805;55.852;37.644;2023-07-29T04:58:48;98292.88;;;17.97;69.67
39051;BME280;24805;55.852;37.644;2023-07-29T05:03:50;98284.56;;;17.98;69.14
39051;BME280;24805;55.852;37.644;2023-07-29T05:08:52;98275.41;;;17.94;69.37
39051;BME280;24805;55.852;37.644;2023-07-29T05:13:55;98270.94;;;18.05;69.26
39051;BME280;24805;55.852;37.644;2023-07-29T05:18:57;98270.22;;;18.14;69.05
39051;BME280;24805;55.852;37.644;2023-07-29T05:24:00;98262.72;;;18.21;68.49
39051;BME280;24805;55.852;37.644;2023-07-29T05:29:02;98255.06;;;18.35;68.39
39051;BME280;24805;55.852;37.644;2023-07-29T05:34:06;98254.34;;;18.50;67.85
39051;BME280;24805;55.852;37.644;2023-07-29T05:39:08;98253.09;;;18.63;67.46
39051;BME280;24805;55.852;37.644;2023-07-29T05:44:11;98258.59;;;18.78;66.96
39051;BME280;24805;55.852;37.644;2023-07-29T05:49:13;98269.91;;;18.90;67.00
39051;BME280;24805;55.852;37.644;2023-07-29T05:54:18;98261.34;;;18.93;66.23
39051;BME280;24805;55.852;37.644;2023-07-29T05:59:20;98270.75;;;18.96;66.25
39051;BME280;24805;55.852;37.644;2023-07-29T06:04:24;98272.09;;;18.93;66.26
39051;BME280;24805;55.852;37.644;2023-07-29T06:09:27;98299.50;;;19.00;66.10
39051;BME280;24805;55.852;37.644;2023-07-29T06:14:29;98297.63;;;18.96;66.61
39051;BME280;24805;55.852;37.644;2023-07-29T06:19:31;98306.25;;;19.03;66.65
39051;BME280;24805;55.852;37.644;2023-07-29T06:24:34;98319.72;;;19.08;66.16
39051;BME280;24805;55.852;37.644;2023-07-29T06:29:36;98319.75;;;19.13;65.96
39051;BME280;24805;55.852;37.644;2023-07-29T06:34:39;98320.31;;;19.20;65.64
39051;BME280;24805;55.852;37.644;2023-07-29T06:39:41;98331.63;;;19.27;65.97
39051;BME280;24805;55.852;37.644;2023-07-29T06:44:43;98330.84;;;19.32;65.69
39051;BME280;24805;55.852;37.644;2023-07-29T06:49:47;98337.06;;;19.37;65.52
39051;BME280;24805;55.852;37.644;2023-07-29T06:54:50;98326.03;;;19.34;65.17
39051;BME280;24805;55.852;37.644;2023-07-29T06:59:52;98326.03;;;19.39;65.35
39051;BME280;24805;55.852;37.644;2023-07-29T07:04:55;98342.44;;;19.42;64.99
39051;BME280;24805;55.852;37.644;2023-07-29T07:09:58;98351.03;;;19.39;65.23
39051;BME280;24805;55.852;37.644;2023-07-29T07:15:05;98350.78;;;19.36;64.91
39051;BME280;24805;55.852;37.644;2023-07-29T07:20:07;98360.44;;;19.32;65.40
39051;BME280;24805;55.852;37.644;2023-07-29T07:25:10;98341.03;;;19.24;65.30
39051;BME280;24805;55.852;37.644;2023-07-29T07:30:13;98343.69;;;19.14;65.61
39051;BME280;24805;55.852;37.644;2023-07-29T07:35:15;98339.63;;;19.12;66.03
39051;BME280;24805;55.852;37.644;2023-07-29T07:40:18;98342.63;;;19.15;65.73
39051;BME280;24805;55.852;37.644;2023-07-29T07:45:20;98342.09;;;19.23;65.31
39051;BME280;24805;55.852;37.644;2023-07-29T07:50:22;98333.00;;;19.30;65.36
39051;BME280;24805;55.852;37.644;2023-07-29T07:55:26;98338.94;;;19.42;64.86
39051;BME280;24805;55.852;37.644;2023-07-29T08:00:28;98353.50;;;19.46;64.68
39051;BME280;24805;55.852;37.644;2023-07-29T08:05:31;98342.00;;;19.50;64.35
39051;BME280;24805;55.852;37.644;2023-07-29T08:10:34;98347.66;;;19.54;64.54
39051;BME280;24805;55.852;37.644;2023-07-29T08:15:36;98353.56;;;19.51;64.19
39051;BME280;24805;55.852;37.644;2023-07-29T08:20:38;98350.78;;;19.41;64.39
39051;BME280;24805;55.852;37.644;2023-07-29T08:25:40;98355.88;;;19.32;64.95
39051;BME280;24805;55.852;37.644;2023-07-29T08:30:43;98362.25;;;19.21;65.16
39051;BME280;24805;55.852;37.644;2023-07-29T08:35:45;98360.09;;;19.18;65.33
39051;BME280;24805;55.852;37.644;2023-07-29T08:41:04;98376.34;;;19.38;66.00
39051;BME280;24805;55.852;37.644;2023-07-29T08:46:07;98371.38;;;19.15;66.38
39051;BME280;24805;55.852;37.644;2023-07-29T08:51:11;98376.53;;;19.26;66.82
39051;BME280;24805;55.852;37.644;2023-07-29T08:56:15;98369.84;;;19.29;65.96
39051;BME280;24805;55.852;37.644;2023-07-29T09:01:17;98365.03;;;19.41;66.74
39051;BME280;24805;55.852;37.644;2023-07-29T09:06:20;98371.56;;;19.50;64.99
39051;BME280;24805;55.852;37.644;2023-07-29T09:11:24;98352.22;;;19.53;65.76
39051;BME280;24805;55.852;37.644;2023-07-29T09:16:26;98361.97;;;19.80;65.05
39051;BME280;24805;55.852;37.644;2023-07-29T09:21:29;98363.38;;;19.98;64.03
39051;BME280;24805;55.852;37.644;2023-07-29T09:26:31;98366.34;;;20.06;63.85
39051;BME280;24805;55.852;37.644;2023-07-29T09:31:34;98366.38;;;20.16;64.36
39051;BME280;24805;55.852;37.644;2023-07-29T09:36:36;98364.22;;;20.23;63.71
39051;BME280;24805;55.852;37.644;2023-07-29T09:41:39;98377.66;;;20.18;64.84
39051;BME280;24805;55.852;37.644;2023-07-29T09:46:45;98383.63;;;20.30;64.15
39051;BME280;24805;55.852;37.644;2023-07-29T09:51:48;98377.38;;;20.05;64.75
39051;BME280;24805;55.852;37.644;2023-07-29T09:56:51;98379.53;;;19.92;65.22
39051;BME280;24805;55.852;37.644;2023-07-29T10:01:54;98385.69;;;19.78;66.16
39051;BME280;24805;55.852;37.644;2023-07-29T10:06:57;98389.19;;;19.99;64.98
39051;BME280;24805;55.852;37.644;2023-07-29T10:11:59;98382.78;;;20.20;66.50
39051;BME280;24805;55.852;37.644;2023-07-29T10:17:02;98384.72;;;20.40;63.53
39051;BME280;24805;55.852;37.644;2023-07-29T10:22:05;98386.34;;;20.66;64.66
39051;BME280;24805;55.852;37.644;2023-07-29T10:27:11;98371.78;;;20.92;63.80
39051;BME280;24805;55.852;37.644;2023-07-29T10:32:16;98390.06;;;21.11;62.25
39051;BME280;24805;55.852;37.644;2023-07-29T10:37:19;98373.38;;;21.04;62.08
39051;BME280;24805;55.852;37.644;2023-07-29T10:42:22;98373.66;;;20.92;61.41
39051;BME280;24805;55.852;37.644;2023-07-29T10:47:29;98387.97;;;20.92;61.63
39051;BME280;24805;55.852;37.644;2023-07-29T10:52:40;98388.47;;;20.99;61.30
39051;BME280;24805;55.852;37.644;2023-07-29T10:57:45;98392.81;;;20.65;62.19
39051;BME280;24805;55.852;37.644;2023-07-29T11:02:59;98393.91;;;20.69;62.52
39051;BME280;24805;55.852;37.644;2023-07-29T11:08:19;98386.09;;;20.57;63.13
39051;BME280;24805;55.852;37.644;2023-07-29T11:13:21;98388.44;;;20.23;62.90
39051;BME280;24805;55.852;37.644;2023-07-29T11:18:34;98386.09;;;20.47;62.96
39051;BME280;24805;55.852;37.644;2023-07-29T11:23:37;98387.97;;;20.37;63.37
39051;BME280;24805;55.852;37.644;2023-07-29T11:28:39;98383.38;;;20.42;62.73
39051;BME280;24805;55.852;37.644;2023-07-29T11:33:42;98382.03;;;20.50;62.15
39051;BME280;24805;55.852;37.644;2023-07-29T11:38:44;98388.50;;;20.59;62.52
39051;BME280;24805;55.852;37.644;2023-07-29T11:43:47;98392.28;;;20.63;61.53
39051;BME280;24805;55.852;37.644;2023-07-29T11:48:49;98405.50;;;20.75;62.00
39051;BME280;24805;55.852;37.644;2023-07-29T11:53:51;98418.72;;;20.76;61.37
39051;BME280;24805;55.852;37.644;2023-07-29T11:58:55;98407.91;;;20.76;61.73
39051;BME280;24805;55.852;37.644;2023-07-29T12:03:57;98415.47;;;20.74;61.34
39051;BME280;24805;55.852;37.644;2023-07-29T12:09:00;98422.47;;;20.75;61.23
39051;BME280;24805;55.852;37.644;2023-07-29T12:14:02;98430.03;;;20.78;61.47
39051;BME280;24805;55.852;37.644;2023-07-29T12:19:05;98422.72;;;20.79;60.68
39051;BME280;24805;55.852;37.644;2023-07-29T12:24:07;98422.19;;;20.72;60.83
39051;BME280;24805;55.852;37.644;2023-07-29T12:29:19;98418.13;;;20.84;61.31
39051;BME280;24805;55.852;37.644;2023-07-29T12:34:25;98414.38;;;20.65;61.90
39051;BME280;24805;55.852;37.644;2023-07-29T12:39:38;98409.78;;;20.81;62.12
39051;BME280;24805;55.852;37.644;2023-07-29T12:44:41;98408.47;;;20.78;62.22
39051;BME280;24805;55.852;37.644;2023-07-29T12:49:43;98411.13;;;20.93;60.86
39051;BME280;24805;55.852;37.644;2023-07-29T12:54:46;98399.53;;;20.98;60.92
39051;BME280;24805;55.852;37.644;2023-07-29T12:59:48;98400.31;;;21.04;61.32
39051;BME280;24805;55.852;37.644;2023-07-29T13:04:50;98399.53;;;21.03;60.56
39051;BME280;24805;55.852;37.644;2023-07-29T13:09:53;98395.78;;;20.94;60.29
39051;BME280;24805;55.852;37.644;2023-07-29T13:14:55;98392.81;;;20.80;60.84
39051;BME280;24805;55.852;37.644;2023-07-29T13:19:58;98396.06;;;20.72;61.50
39051;BME280;24805;55.852;37.644;2023-07-29T13:25:00;98396.06;;;20.67;60.77
39051;BME280;24805;55.852;37.644;2023-07-29T13:30:05;98398.75;;;20.72;61.32
39051;BME280;24805;55.852;37.644;2023-07-29T13:35:07;98386.88;;;20.83;60.43
39051;BME280;24805;55.852;37.644;2023-07-29T13:40:10;98388.50;;;20.79;60.29
39051;BME280;24805;55.852;37.644;2023-07-29T13:45:12;98383.94;;;20.75;60.41
39051;BME280;24805;55.852;37.644;2023-07-29T13:50:14;98379.63;;;20.74;60.85
39051;BME280;24805;55.852;37.644;2023-07-29T13:55:17;98386.34;;;20.76;61.25
39051;BME280;24805;55.852;37.644;2023-07-29T14:00:21;98382.56;;;20.82;60.04
39051;BME280;24805;55.852;37.644;2023-07-29T14:05:23;98361.25;;;20.91;59.85
39051;BME280;24805;55.852;37.644;2023-07-29T14:10:25;98354.78;;;20.92;60.26
39051;BME280;24805;55.852;37.644;2023-07-29T14:15:28;98365.81;;;21.01;59.19
39051;BME280;24805;55.852;37.644;2023-07-29T14:20:30;98352.38;;;20.95;58.64
39051;BME280;24805;55.852;37.644;2023-07-29T14:25:33;98359.88;;;21.09;58.24
39051;BME280;24805;55.852;37.644;2023-07-29T14:30:35;98358.53;;;21.11;58.40
39051;BME280;24805;55.852;37.644;2023-07-29T14:35:39;98360.69;;;21.09;57.55
39051;BME280;24805;55.852;37.644;2023-07-29T14:40:42;98349.34;;;21.17;57.08
39051;BME280;24805;55.852;37.644;2023-07-29T14:45:45;98354.19;;;21.20;57.19
39051;BME280;24805;55.852;37.644;2023-07-29T14:50:47;98366.31;;;21.28;56.57
39051;BME280;24805;55.852;37.644;2023-07-29T14:55:50;98366.03;;;21.19;56.60
39051;BME280;24805;55.852;37.644;2023-07-29T15:00:52;98360.38;;;21.31;56.00
39051;BME280;24805;55.852;37.644;2023-07-29T15:05:55;98358.22;;;21.28;55.88
39051;BME280;24805;55.852;37.644;2023-07-29T15:10:57;98359.31;;;21.32;55.63
39051;BME280;24805;55.852;37.644;2023-07-29T15:16:00;98361.47;;;21.30;55.04
39051;BME280;24805;55.852;37.644;2023-07-29T15:21:02;98366.06;;;21.29;55.45
39051;BME280;24805;55.852;37.644;2023-07-29T15:26:05;98370.63;;;21.29;54.98
39051;BME280;24805;55.852;37.644;2023-07-29T15:31:07;98381.16;;;21.20;54.72
39051;BME280;24805;55.852;37.644;2023-07-29T15:36:10;98378.22;;;21.12;55.70
39051;BME280;24805;55.852;37.644;2023-07-29T15:41:12;98376.88;;;21.09;55.38
39051;BME280;24805;55.852;37.644;2023-07-29T15:46:15;98368.78;;;21.04;55.89
39051;BME280;24805;55.852;37.644;2023-07-29T15:51:17;98376.31;;;21.07;55.69
39051;BME280;24805;55.852;37.644;2023-07-29T15:56:19;98379.28;;;21.06;55.50
39051;BME280;24805;55.852;37.644;2023-07-29T16:01:22;98381.44;;;21.04;55.95
39051;BME280;24805;55.852;37.644;2023-07-29T16:06:26;98383.88;;;21.00;55.67
39051;BME280;24805;55.852;37.644;2023-07-29T16:11:29;98376.91;;;20.89;56.43
39051;BME280;24805;55.852;37.644;2023-07-29T16:16:31;98381.50;;;20.78;57.26
39051;BME280;24805;55.852;37.644;2023-07-29T16:21:33;98381.22;;;20.64;57.43
39051;BME280;24805;55.852;37.644;2023-07-29T16:26:36;98383.13;;;20.49;57.71
39051;BME280;24805;55.852;37.644;2023-07-29T16:31:39;98382.53;;;20.32;57.84
39051;BME280;24805;55.852;37.644;2023-07-29T16:36:41;98376.88;;;20.13;58.56
39051;BME280;24805;55.852;37.644;2023-07-29T16:41:43;98382.50;;;19.96;58.25
39051;BME280;24805;55.852;37.644;2023-07-29T16:46:50;98376.25;;;19.85;59.16
39051;BME280;24805;55.852;37.644;2023-07-29T16:51:52;98388.34;;;19.83;59.39
39051;BME280;24805;55.852;37.644;2023-07-29T16:56:54;98391.88;;;19.78;59.89
39051;BME280;24805;55.852;37.644;2023-07-29T17:01:57;98392.63;;;19.69;59.47
39051;BME280;24805;55.852;37.644;2023-07-29T17:06:59;98409.25;;;19.60;59.42
39051;BME280;24805;55.852;37.644;2023-07-29T17:12:02;98412.97;;;19.49;60.19
39051;BME280;24805;55.852;37.644;2023-07-29T17:17:05;98404.81;;;19.34;60.17
39051;BME280;24805;55.852;37.644;2023-07-29T17:22:07;98408.75;;;19.16;61.02
39051;BME280;24805;55.852;37.644;2023-07-29T17:27:10;98412.13;;;19.02;61.66
39051;BME280;24805;55.852;37.644;2023-07-29T17:32:12;98391.00;;;18.73;62.24
39051;BME280;24805;55.852;37.644;2023-07-29T17:37:14;98396.56;;;18.67;62.78
39051;BME280;24805;55.852;37.644;2023-07-29T17:42:17;98399.13;;;18.51;63.74
39051;BME280;24805;55.852;37.644;2023-07-29T17:47:19;98404.34;;;18.36;64.33
39051;BME280;24805;55.852;37.644;2023-07-29T17:52:22;98399.13;;;18.24;65.00
39051;BME280;24805;55.852;37.644;2023-07-29T17:57:24;98393.06;;;18.07;65.37
39051;BME280;24805;55.852;37.644;2023-07-29T18:02:28;98405.84;;;18.00;65.60
39051;BME280;24805;55.852;37.644;2023-07-29T18:07:31;98408.94;;;17.87;66.32
39051;BME280;24805;55.852;37.644;2023-07-29T18:12:33;98404.53;;;17.76;66.60
39051;BME280;24805;55.852;37.644;2023-07-29T18:17:37;98407.91;;;17.66;67.25
39051;BME280;24805;55.852;37.644;2023-07-29T18:22:40;98405.31;;;17.54;68.08
39051;BME280;24805;55.852;37.644;2023-07-29T18:27:42;98407.53;;;17.41;68.45
39051;BME280;24805;55.852;37.644;2023-07-29T18:32:45;98404.75;;;17.31;68.70
39051;BME280;24805;55.852;37.644;2023-07-29T18:37:48;98391.44;;;17.19;69.23
39051;BME280;24805;55.852;37.644;2023-07-29T18:42:55;98396.91;;;17.07;69.45
39051;BME280;24805;55.852;37.644;2023-07-29T18:47:57;98410.06;;;17.09;69.43
39051;BME280;24805;55.852;37.644;2023-07-29T18:53:00;98411.59;;;17.05;69.88
39051;BME280;24805;55.852;37.644;2023-07-29T18:58:02;98416.34;;;16.98;69.90
39051;BME280;24805;55.852;37.644;2023-07-29T19:03:04;98407.56;;;16.85;70.11
39051;BME280;24805;55.852;37.644;2023-07-29T19:08:07;98419.25;;;16.79;70.03
39051;BME280;24805;55.852;37.644;2023-07-29T19:13:10;98439.56;;;16.75;70.43
39051;BME280;24805;55.852;37.644;2023-07-29T19:18:12;98423.56;;;16.64;70.71
39051;BME280;24805;55.852;37.644;2023-07-29T19:23:15;98434.47;;;16.62;71.02
39051;BME280;24805;55.852;37.644;2023-07-29T19:28:17;98441.41;;;16.58;71.28
39051;BME280;24805;55.852;37.644;2023-07-29T19:33:19;98440.00;;;16.56;71.79
39051;BME280;24805;55.852;37.644;2023-07-29T19:38:22;98440.72;;;16.51;71.71
39051;BME280;24805;55.852;37.644;2023-07-29T19:43:25;98427.81;;;16.48;71.71
39051;BME280;24805;55.852;37.644;2023-07-29T19:48:27;98432.38;;;16.47;71.53
39051;BME280;24805;55.852;37.644;2023-07-29T19:53:30;98409.31;;;16.46;71.84
39051;BME280;24805;55.852;37.644;2023-07-29T19:58:32;98405.59;;;16.47;71.58
39051;BME280;24805;55.852;37.644;2023-07-29T20:03:34;98406.88;;;16.45;71.99
39051;BME280;24805;55.852;37.644;2023-07-29T20:08:37;98418.75;;;16.49;71.83
39051;BME280;24805;55.852;37.644;2023-07-29T20:13:39;98420.59;;;16.48;72.02
39051;BME280;24805;55.852;37.644;2023-07-29T20:18:42;98416.78;;;16.44;71.78
39051;BME280;24805;55.852;37.644;2023-07-29T20:23:45;98415.09;;;16.38;72.15
39051;BME280;24805;55.852;37.644;2023-07-29T20:28:47;98421.97;;;16.34;72.32
39051;BME280;24805;55.852;37.644;2023-07-29T20:33:50;98422.44;;;16.31;72.28
39051;BME280;24805;55.852;37.644;2023-07-29T20:38:54;98423.75;;;16.29;72.44
39051;BME280;24805;55.852;37.644;2023-07-29T20:43:57;98434.09;;;16.25;72.52
39051;BME280;24805;55.852;37.644;2023-07-29T20:48:59;98433.53;;;16.23;72.62
39051;BME280;24805;55.852;37.644;2023-07-29T20:54:02;98440.84;;;16.28;72.76
39051;BME280;24805;55.852;37.644;2023-07-29T20:59:04;98443.03;;;16.31;72.70
39051;BME280;24805;55.852;37.644;2023-07-29T21:04:07;98440.38;;;16.31;72.74
39051;BME280;24805;55.852;37.644;2023-07-29T21:09:09;98454.56;;;16.31;72.70
39051;BME280;24805;55.852;37.644;2023-07-29T21:14:12;98454.81;;;16.30;72.67
39051;BME280;24805;55.852;37.644;2023-07-29T21:19:14;98448.41;;;16.31;72.88
39051;BME280;24805;55.852;37.644;2023-07-29T21:24:16;98445.16;;;16.29;73.17
39051;BME280;24805;55.852;37.644;2023-07-29T21:29:18;98440.59;;;16.29;72.92
39051;BME280;24805;55.852;37.644;2023-07-29T21:34:21;98435.25;;;16.29;73.17
39051;BME280;24805;55.852;37.644;2023-07-29T21:39:23;98437.03;;;16.24;72.56
39051;BME280;24805;55.852;37.644;2023-07-29T21:44:26;98429.81;;;16.24;73.05
39051;BME280;24805;55.852;37.644;2023-07-29T21:49:28;98436.44;;;16.22;73.28
39051;BME280;24805;55.852;37.644;2023-07-29T21:54:31;98432.06;;;16.15;73.43
39051;BME280;24805;55.852;37.644;2023-07-29T21:59:34;98437.91;;;16.12;73.56
39051;BME280;24805;55.852;37.644;2023-07-29T22:04:37;98431.97;;;16.10;73.51
39051;BME280;24805;55.852;37.644;2023-07-29T22:09:39;98431.63;;;16.07;73.48
39051;BME280;24805;55.852;37.644;2023-07-29T22:14:43;98428.16;;;16.06;73.44
39051;BME280;24805;55.852;37.644;2023-07-29T22:19:46;98428.03;;;16.01;73.52
39051;BME280;24805;55.852;37.644;2023-07-29T22:24:48;98422.94;;;16.00;73.61
39051;BME280;24805;55.852;37.644;2023-07-29T22:29:54;98429.31;;;15.99;73.99
39051;BME280;24805;55.852;37.644;2023-07-29T22:34:57;98423.19;;;15.98;73.94
39051;BME280;24805;55.852;37.644;2023-07-29T22:39:59;98423.75;;;16.00;73.90
39051;BME280;24805;55.852;37.644;2023-07-29T22:45:01;98419.78;;;16.03;73.56
39051;BME280;24805;55.852;37.644;2023-07-29T22:50:05;98417.34;;;16.01;73.13
39051;BME280;24805;55.852;37.644;2023-07-29T22:55:07;98406.06;;;15.99;73.07
39051;BME280;24805;55.852;37.644;2023-07-29T23:00:10;98409.25;;;15.96;73.16
39051;BME280;24805;55.852;37.644;2023-07-29T23:05:12;98405.75;;;15.96;72.86
39051;BME280;24805;55.852;37.644;2023-07-29T23:10:15;98422.84;;;15.95;72.88
39051;BME280;24805;55.852;37.644;2023-07-29T23:15:17;98419.94;;;15.96;72.86
39051;BME280;24805;55.852;37.644;2023-07-29T23:20:20;98419.44;;;15.99;73.03
39051;BME280;24805;55.852;37.644;2023-07-29T23:25:23;98420.25;;;16.00;72.99
39051;BME280;24805;55.852;37.644;2023-07-29T23:30:25;98407.44;;;16.02;73.07
39051;BME280;24805;55.852;37.644;2023-07-29T23:35:28;98418.63;;;15.99;72.88
39051;BME280;24805;55.852;37.644;2023-07-29T23:40:30;98413.28;;;15.99;73.10
39051;BME280;24805;55.852;37.644;2023-07-29T23:45:32;98409.31;;;16.01;73.30
39051;BME280;24805;55.852;37.644;2023-07-29T23:50:36;98416.28;;;16.02;73.16
39051;BME280;24805;55.852;37.644;2023-07-29T23:55:40;98420.84;;;16.02;73.50
